sensor_id;sensor_type;location;lat;lon;timestamp;P1;durP1;ratioP1;P2;durP2;ratioP2
579;SDS011;276;48.392;9.950;2023-07-02T00:01:13;3.63;;;3.33;;
579;SDS011;276;48.392;9.950;2023-07-02T00:03:38;3.53;;;3.23;;
579;SDS011;276;48.392;9.950;2023-07-02T00:06:04;3.23;;;3.03;;
579;SDS011;276;48.392;9.950;2023-07-02T00:08:30;3.70;;;3.40;;
579;SDS011;276;48.392;9.950;2023-07-02T00:10:55;3.33;;;3.03;;
579;SDS011;276;48.392;9.950;2023-07-02T00:13:21;3.63;;;3.33;;
579;SDS011;276;48.392;9.950;2023-07-02T00:15:47;3.80;;;3.50;;
579;SDS011;276;48.392;9.950;2023-07-02T00:18:13;3.20;;;3.00;;
579;SDS011;276;48.392;9.950;2023-07-02T00:20:41;3.27;;;2.90;;
579;SDS011;276;48.392;9.950;2023-07-02T00:23:10;3.03;;;2.83;;
579;SDS011;276;48.392;9.950;2023-07-02T00:25:38;3.93;;;3.50;;
579;SDS011;276;48.392;9.950;2023-07-02T00:28:06;4.03;;;3.67;;
579;SDS011;276;48.392;9.950;2023-07-02T00:30:31;3.20;;;3.00;;
579;SDS011;276;48.392;9.950;2023-07-02T00:32:57;2.53;;;2.10;;
579;SDS011;276;48.392;9.950;2023-07-02T00:35:25;2.70;;;2.50;;
579;SDS011;276;48.392;9.950;2023-07-02T00:37:50;2.33;;;2.23;;
579;SDS011;276;48.392;9.950;2023-07-02T00:40:18;2.13;;;1.97;;
579;SDS011;276;48.392;9.950;2023-07-02T00:42:44;2.93;;;2.70;;
579;SDS011;276;48.392;9.950;2023-07-02T00:45:09;1.80;;;1.50;;
579;SDS011;276;48.392;9.950;2023-07-02T00:47:35;2.47;;;2.27;;
579;SDS011;276;48.392;9.950;2023-07-02T00:50:03;2.20;;;1.70;;
579;SDS011;276;48.392;9.950;2023-07-02T00:52:29;5.40;;;1.70;;
579;SDS011;276;48.392;9.950;2023-07-02T00:55:00;1.93;;;1.70;;
579;SDS011;276;48.392;9.950;2023-07-02T00:57:26;2.03;;;1.70;;
579;SDS011;276;48.392;9.950;2023-07-02T00:59:54;1.77;;;1.67;;
579;SDS011;276;48.392;9.950;2023-07-02T01:02:25;2.20;;;1.70;;
579;SDS011;276;48.392;9.950;2023-07-02T01:04:54;1.53;;;1.43;;
579;SDS011;276;48.392;9.950;2023-07-02T01:07:23;2.30;;;1.37;;
579;SDS011;276;48.392;9.950;2023-07-02T01:09:49;1.90;;;1.80;;
579;SDS011;276;48.392;9.950;2023-07-02T01:12:15;2.40;;;2.20;;
579;SDS011;276;48.392;9.950;2023-07-02T01:14:50;2.57;;;2.37;;
579;SDS011;276;48.392;9.950;2023-07-02T01:17:21;2.57;;;2.37;;
579;SDS011;276;48.392;9.950;2023-07-02T01:22:21;2.53;;;2.33;;
579;SDS011;276;48.392;9.950;2023-07-02T01:24:48;2.70;;;2.50;;
579;SDS011;276;48.392;9.950;2023-07-02T01:27:16;3.07;;;2.87;;
579;SDS011;276;48.392;9.950;2023-07-02T01:29:45;2.97;;;2.70;;
579;SDS011;276;48.392;9.950;2023-07-02T01:32:12;3.03;;;2.83;;
579;SDS011;276;48.392;9.950;2023-07-02T01:34:40;2.97;;;2.77;;
579;SDS011;276;48.392;9.950;2023-07-02T01:37:09;2.53;;;2.30;;
579;SDS011;276;48.392;9.950;2023-07-02T01:39:34;2.87;;;2.43;;
579;SDS011;276;48.392;9.950;2023-07-02T01:42:07;3.30;;;3.00;;
579;SDS011;276;48.392;9.950;2023-07-02T01:44:36;2.93;;;2.53;;
579;SDS011;276;48.392;9.950;2023-07-02T01:47:02;3.87;;;2.20;;
579;SDS011;276;48.392;9.950;2023-07-02T01:49:28;2.47;;;2.27;;
579;SDS011;276;48.392;9.950;2023-07-02T01:51:54;3.37;;;3.00;;
579;SDS011;276;48.392;9.950;2023-07-02T01:54:21;2.87;;;2.57;;
579;SDS011;276;48.392;9.950;2023-07-02T01:56:52;3.47;;;2.50;;
579;SDS011;276;48.392;9.950;2023-07-02T01:59:17;4.90;;;2.87;;
579;SDS011;276;48.392;9.950;2023-07-02T02:01:47;3.00;;;2.80;;
579;SDS011;276;48.392;9.950;2023-07-02T02:04:15;3.00;;;2.50;;
579;SDS011;276;48.392;9.950;2023-07-02T02:06:41;2.43;;;2.23;;
579;SDS011;276;48.392;9.950;2023-07-02T02:09:07;5.90;;;3.30;;
579;SDS011;276;48.392;9.950;2023-07-02T02:11:34;3.50;;;3.13;;
579;SDS011;276;48.392;9.950;2023-07-02T02:14:04;3.60;;;3.10;;
579;SDS011;276;48.392;9.950;2023-07-02T02:16:32;2.73;;;2.53;;
579;SDS011;276;48.392;9.950;2023-07-02T02:19:00;3.17;;;2.97;;
579;SDS011;276;48.392;9.950;2023-07-02T02:21:26;3.33;;;3.00;;
579;SDS011;276;48.392;9.950;2023-07-02T02:23:52;3.00;;;2.40;;
579;SDS011;276;48.392;9.950;2023-07-02T02:26:23;3.07;;;2.87;;
579;SDS011;276;48.392;9.950;2023-07-02T02:28:51;3.13;;;2.60;;
579;SDS011;276;48.392;9.950;2023-07-02T02:31:16;3.50;;;3.20;;
579;SDS011;276;48.392;9.950;2023-07-02T02:33:44;3.07;;;2.87;;
579;SDS011;276;48.392;9.950;2023-07-02T02:36:13;3.60;;;3.00;;
579;SDS011;276;48.392;9.950;2023-07-02T02:38:42;2.80;;;2.60;;
579;SDS011;276;48.392;9.950;2023-07-02T02:41:07;2.80;;;2.60;;
579;SDS011;276;48.392;9.950;2023-07-02T02:43:35;3.40;;;3.10;;
579;SDS011;276;48.392;9.950;2023-07-02T02:46:01;3.47;;;2.60;;
579;SDS011;276;48.392;9.950;2023-07-02T02:48:26;3.27;;;2.97;;
579;SDS011;276;48.392;9.950;2023-07-02T02:50:52;3.30;;;3.03;;
579;SDS011;276;48.392;9.950;2023-07-02T02:53:20;2.57;;;2.37;;
579;SDS011;276;48.392;9.950;2023-07-02T02:55:48;2.73;;;2.63;;
579;SDS011;276;48.392;9.950;2023-07-02T02:58:14;2.87;;;2.67;;
579;SDS011;276;48.392;9.950;2023-07-02T03:00:39;3.00;;;2.70;;
579;SDS011;276;48.392;9.950;2023-07-02T03:03:10;2.80;;;2.60;;
579;SDS011;276;48.392;9.950;2023-07-02T03:05:38;2.73;;;2.53;;
579;SDS011;276;48.392;9.950;2023-07-02T03:08:06;2.97;;;2.77;;
579;SDS011;276;48.392;9.950;2023-07-02T03:10:32;3.43;;;3.10;;
579;SDS011;276;48.392;9.950;2023-07-02T03:13:00;3.47;;;3.10;;
579;SDS011;276;48.392;9.950;2023-07-02T03:15:25;3.33;;;3.03;;
579;SDS011;276;48.392;9.950;2023-07-02T03:17:51;3.53;;;3.23;;
579;SDS011;276;48.392;9.950;2023-07-02T03:20:19;2.40;;;2.20;;
579;SDS011;276;48.392;9.950;2023-07-02T03:22:47;4.73;;;3.80;;
579;SDS011;276;48.392;9.950;2023-07-02T03:25:13;3.03;;;2.50;;
579;SDS011;276;48.392;9.950;2023-07-02T03:27:41;5.73;;;3.50;;
579;SDS011;276;48.392;9.950;2023-07-02T03:30:07;6.80;;;2.90;;
579;SDS011;276;48.392;9.950;2023-07-02T03:32:33;2.77;;;2.57;;
579;SDS011;276;48.392;9.950;2023-07-02T03:34:58;3.00;;;2.70;;
579;SDS011;276;48.392;9.950;2023-07-02T03:37:24;2.47;;;2.27;;
579;SDS011;276;48.392;9.950;2023-07-02T03:39:49;2.57;;;2.37;;
579;SDS011;276;48.392;9.950;2023-07-02T03:42:15;3.37;;;2.67;;
579;SDS011;276;48.392;9.950;2023-07-02T03:44:43;3.40;;;3.10;;
579;SDS011;276;48.392;9.950;2023-07-02T03:47:09;3.67;;;2.73;;
579;SDS011;276;48.392;9.950;2023-07-02T03:49:37;3.67;;;3.13;;
579;SDS011;276;48.392;9.950;2023-07-02T03:52:02;3.13;;;2.33;;
579;SDS011;276;48.392;9.950;2023-07-02T03:54:28;6.10;;;3.10;;
579;SDS011;276;48.392;9.950;2023-07-02T03:56:56;3.10;;;2.70;;
579;SDS011;276;48.392;9.950;2023-07-02T03:59:22;5.27;;;2.50;;
579;SDS011;276;48.392;9.950;2023-07-02T04:01:50;2.47;;;2.27;;
579;SDS011;276;48.392;9.950;2023-07-02T04:04:16;3.00;;;2.80;;
579;SDS011;276;48.392;9.950;2023-07-02T04:06:41;2.60;;;2.40;;
579;SDS011;276;48.392;9.950;2023-07-02T04:09:07;4.13;;;3.83;;
579;SDS011;276;48.392;9.950;2023-07-02T04:11:33;2.50;;;2.23;;
579;SDS011;276;48.392;9.950;2023-07-02T04:14:00;2.60;;;2.40;;
579;SDS011;276;48.392;9.950;2023-07-02T04:16:28;4.50;;;3.07;;
579;SDS011;276;48.392;9.950;2023-07-02T04:18:56;2.77;;;2.57;;
579;SDS011;276;48.392;9.950;2023-07-02T04:21:22;3.50;;;3.20;;
579;SDS011;276;48.392;9.950;2023-07-02T04:23:48;4.47;;;3.07;;
579;SDS011;276;48.392;9.950;2023-07-02T04:26:13;3.63;;;3.40;;
579;SDS011;276;48.392;9.950;2023-07-02T04:28:43;3.63;;;3.33;;
579;SDS011;276;48.392;9.950;2023-07-02T04:31:13;3.00;;;2.80;;
579;SDS011;276;48.392;9.950;2023-07-02T04:33:39;3.97;;;3.67;;
579;SDS011;276;48.392;9.950;2023-07-02T04:36:05;3.90;;;3.60;;
579;SDS011;276;48.392;9.950;2023-07-02T04:38:33;3.53;;;3.20;;
579;SDS011;276;48.392;9.950;2023-07-02T04:41:03;3.33;;;3.03;;
579;SDS011;276;48.392;9.950;2023-07-02T04:43:32;5.40;;;3.00;;
579;SDS011;276;48.392;9.950;2023-07-02T04:45:58;3.50;;;3.20;;
579;SDS011;276;48.392;9.950;2023-07-02T04:48:24;7.77;;;4.03;;
579;SDS011;276;48.392;9.950;2023-07-02T04:50:50;4.13;;;3.53;;
579;SDS011;276;48.392;9.950;2023-07-02T04:53:15;3.30;;;3.00;;
579;SDS011;276;48.392;9.950;2023-07-02T04:55:42;3.00;;;2.80;;
579;SDS011;276;48.392;9.950;2023-07-02T04:58:08;3.20;;;2.90;;
579;SDS011;276;48.392;9.950;2023-07-02T05:00:36;3.70;;;3.40;;
579;SDS011;276;48.392;9.950;2023-07-02T05:03:06;3.70;;;3.03;;
579;SDS011;276;48.392;9.950;2023-07-02T05:05:32;3.43;;;3.17;;
579;SDS011;276;48.392;9.950;2023-07-02T05:07:57;3.70;;;3.40;;
579;SDS011;276;48.392;9.950;2023-07-02T05:10:23;4.07;;;2.90;;
579;SDS011;276;48.392;9.950;2023-07-02T05:12:48;3.37;;;3.10;;
579;SDS011;276;48.392;9.950;2023-07-02T05:15:14;3.63;;;3.23;;
579;SDS011;276;48.392;9.950;2023-07-02T05:17:44;4.33;;;3.90;;
579;SDS011;276;48.392;9.950;2023-07-02T05:20:10;3.50;;;3.20;;
579;SDS011;276;48.392;9.950;2023-07-02T05:22:36;3.40;;;3.13;;
579;SDS011;276;48.392;9.950;2023-07-02T05:25:04;3.30;;;3.03;;
579;SDS011;276;48.392;9.950;2023-07-02T05:27:30;3.47;;;3.17;;
579;SDS011;276;48.392;9.950;2023-07-02T05:29:55;3.83;;;3.53;;
579;SDS011;276;48.392;9.950;2023-07-02T05:32:21;3.97;;;3.63;;
579;SDS011;276;48.392;9.950;2023-07-02T05:34:49;3.47;;;3.20;;
579;SDS011;276;48.392;9.950;2023-07-02T05:37:17;4.80;;;2.80;;
579;SDS011;276;48.392;9.950;2023-07-02T05:39:43;3.47;;;3.20;;
579;SDS011;276;48.392;9.950;2023-07-02T05:42:08;3.40;;;3.10;;
579;SDS011;276;48.392;9.950;2023-07-02T05:44:36;3.33;;;3.03;;
579;SDS011;276;48.392;9.950;2023-07-02T05:47:02;7.33;;;3.60;;
579;SDS011;276;48.392;9.950;2023-07-02T05:49:28;3.77;;;2.97;;
579;SDS011;276;48.392;9.950;2023-07-02T05:51:53;3.23;;;2.93;;
579;SDS011;276;48.392;9.950;2023-07-02T05:54:19;2.77;;;2.57;;
579;SDS011;276;48.392;9.950;2023-07-02T05:56:45;3.17;;;2.97;;
579;SDS011;276;48.392;9.950;2023-07-02T05:59:13;3.73;;;3.20;;
579;SDS011;276;48.392;9.950;2023-07-02T06:01:42;3.47;;;2.67;;
579;SDS011;276;48.392;9.950;2023-07-02T06:04:08;3.03;;;2.60;;
579;SDS011;276;48.392;9.950;2023-07-02T06:06:36;3.10;;;2.90;;
579;SDS011;276;48.392;9.950;2023-07-02T06:09:02;3.03;;;2.70;;
579;SDS011;276;48.392;9.950;2023-07-02T06:11:30;2.60;;;2.40;;
579;SDS011;276;48.392;9.950;2023-07-02T06:13:58;2.47;;;2.30;;
579;SDS011;276;48.392;9.950;2023-07-02T06:16:23;2.93;;;2.70;;
579;SDS011;276;48.392;9.950;2023-07-02T06:18:49;3.47;;;3.17;;
579;SDS011;276;48.392;9.950;2023-07-02T06:21:20;2.63;;;2.43;;
579;SDS011;276;48.392;9.950;2023-07-02T06:23:49;2.50;;;2.30;;
579;SDS011;276;48.392;9.950;2023-07-02T06:26:15;2.73;;;2.53;;
579;SDS011;276;48.392;9.950;2023-07-02T06:28:41;2.23;;;2.10;;
579;SDS011;276;48.392;9.950;2023-07-02T06:31:08;1.43;;;1.33;;
579;SDS011;276;48.392;9.950;2023-07-02T06:33:40;2.10;;;1.90;;
579;SDS011;276;48.392;9.950;2023-07-02T06:36:07;4.70;;;4.30;;
579;SDS011;276;48.392;9.950;2023-07-02T06:38:33;3.50;;;3.20;;
579;SDS011;276;48.392;9.950;2023-07-02T06:40:58;3.10;;;2.90;;
579;SDS011;276;48.392;9.950;2023-07-02T06:43:26;3.03;;;2.60;;
579;SDS011;276;48.392;9.950;2023-07-02T06:45:52;3.00;;;2.80;;
579;SDS011;276;48.392;9.950;2023-07-02T06:48:20;3.33;;;3.03;;
579;SDS011;276;48.392;9.950;2023-07-02T06:50:46;4.43;;;4.13;;
579;SDS011;276;48.392;9.950;2023-07-02T06:53:12;4.07;;;3.77;;
579;SDS011;276;48.392;9.950;2023-07-02T06:55:38;3.57;;;3.27;;
579;SDS011;276;48.392;9.950;2023-07-02T06:58:06;4.90;;;4.40;;
579;SDS011;276;48.392;9.950;2023-07-02T07:00:33;10.20;;;4.43;;
579;SDS011;276;48.392;9.950;2023-07-02T07:03:05;4.10;;;3.80;;
579;SDS011;276;48.392;9.950;2023-07-02T07:05:31;8.73;;;7.30;;
579;SDS011;276;48.392;9.950;2023-07-02T07:07:59;7.27;;;5.30;;
579;SDS011;276;48.392;9.950;2023-07-02T07:10:28;13.63;;;12.33;;
579;SDS011;276;48.392;9.950;2023-07-02T07:12:59;9.53;;;8.57;;
579;SDS011;276;48.392;9.950;2023-07-02T07:15:30;6.87;;;6.13;;
579;SDS011;276;48.392;9.950;2023-07-02T07:17:57;6.90;;;6.30;;
579;SDS011;276;48.392;9.950;2023-07-02T07:20:25;5.43;;;4.90;;
579;SDS011;276;48.392;9.950;2023-07-02T07:22:50;5.67;;;4.27;;
579;SDS011;276;48.392;9.950;2023-07-02T07:25:16;6.43;;;5.77;;
579;SDS011;276;48.392;9.950;2023-07-02T07:27:42;4.73;;;4.33;;
579;SDS011;276;48.392;9.950;2023-07-02T07:30:09;4.20;;;3.80;;
579;SDS011;276;48.392;9.950;2023-07-02T07:32:35;6.50;;;5.67;;
579;SDS011;276;48.392;9.950;2023-07-02T07:35:01;7.07;;;6.43;;
579;SDS011;276;48.392;9.950;2023-07-02T07:37:27;6.23;;;5.63;;
579;SDS011;276;48.392;9.950;2023-07-02T07:39:52;6.73;;;6.20;;
579;SDS011;276;48.392;9.950;2023-07-02T07:42:18;5.83;;;5.23;;
579;SDS011;276;48.392;9.950;2023-07-02T07:44:47;5.97;;;5.43;;
579;SDS011;276;48.392;9.950;2023-07-02T07:47:12;5.40;;;4.90;;
579;SDS011;276;48.392;9.950;2023-07-02T07:49:38;5.57;;;5.07;;
579;SDS011;276;48.392;9.950;2023-07-02T07:52:04;4.90;;;4.50;;
579;SDS011;276;48.392;9.950;2023-07-02T07:54:32;6.00;;;4.30;;
579;SDS011;276;48.392;9.950;2023-07-02T07:56:58;4.67;;;4.27;;
579;SDS011;276;48.392;9.950;2023-07-02T07:59:26;6.17;;;4.00;;
579;SDS011;276;48.392;9.950;2023-07-02T08:01:54;5.57;;;5.03;;
579;SDS011;276;48.392;9.950;2023-07-02T08:04:20;5.37;;;4.90;;
579;SDS011;276;48.392;9.950;2023-07-02T08:06:47;4.60;;;4.20;;
579;SDS011;276;48.392;9.950;2023-07-02T08:09:16;7.40;;;4.70;;
579;SDS011;276;48.392;9.950;2023-07-02T08:11:41;6.00;;;5.40;;
579;SDS011;276;48.392;9.950;2023-07-02T08:14:09;5.30;;;4.90;;
579;SDS011;276;48.392;9.950;2023-07-02T08:16:35;6.43;;;5.83;;
579;SDS011;276;48.392;9.950;2023-07-02T08:19:03;5.47;;;4.97;;
579;SDS011;276;48.392;9.950;2023-07-02T08:21:30;6.87;;;5.40;;
579;SDS011;276;48.392;9.950;2023-07-02T08:23:56;6.53;;;5.70;;
579;SDS011;276;48.392;9.950;2023-07-02T08:26:25;6.00;;;5.43;;
579;SDS011;276;48.392;9.950;2023-07-02T08:28:50;7.30;;;6.60;;
579;SDS011;276;48.392;9.950;2023-07-02T08:31:16;7.13;;;6.37;;
579;SDS011;276;48.392;9.950;2023-07-02T08:33:46;10.60;;;6.40;;
579;SDS011;276;48.392;9.950;2023-07-02T08:36:12;8.00;;;7.20;;
579;SDS011;276;48.392;9.950;2023-07-02T08:38:41;9.30;;;7.30;;
579;SDS011;276;48.392;9.950;2023-07-02T08:41:08;9.60;;;7.73;;
579;SDS011;276;48.392;9.950;2023-07-02T08:43:36;10.00;;;7.20;;
579;SDS011;276;48.392;9.950;2023-07-02T08:46:02;7.77;;;7.07;;
579;SDS011;276;48.392;9.950;2023-07-02T08:48:28;7.90;;;7.17;;
579;SDS011;276;48.392;9.950;2023-07-02T08:50:55;7.70;;;6.60;;
579;SDS011;276;48.392;9.950;2023-07-02T08:53:23;8.43;;;7.70;;
579;SDS011;276;48.392;9.950;2023-07-02T08:55:54;9.93;;;8.77;;
579;SDS011;276;48.392;9.950;2023-07-02T08:58:21;11.43;;;8.10;;
579;SDS011;276;48.392;9.950;2023-07-02T09:03:32;9.03;;;8.07;;
579;SDS011;276;48.392;9.950;2023-07-02T09:06:02;8.07;;;7.30;;
579;SDS011;276;48.392;9.950;2023-07-02T09:08:28;11.20;;;8.87;;
579;SDS011;276;48.392;9.950;2023-07-02T09:10:54;8.90;;;7.30;;
579;SDS011;276;48.392;9.950;2023-07-02T09:13:30;10.00;;;8.07;;
579;SDS011;276;48.392;9.950;2023-07-02T09:16:08;10.07;;;8.87;;
579;SDS011;276;48.392;9.950;2023-07-02T09:18:54;11.03;;;8.60;;
579;SDS011;276;48.392;9.950;2023-07-02T09:21:25;8.70;;;7.90;;
579;SDS011;276;48.392;9.950;2023-07-02T09:23:52;11.80;;;9.40;;
579;SDS011;276;48.392;9.950;2023-07-02T09:26:21;10.20;;;9.20;;
579;SDS011;276;48.392;9.950;2023-07-02T09:28:47;9.23;;;8.33;;
579;SDS011;276;48.392;9.950;2023-07-02T09:31:15;9.90;;;8.90;;
579;SDS011;276;48.392;9.950;2023-07-02T09:33:40;11.30;;;9.00;;
579;SDS011;276;48.392;9.950;2023-07-02T09:36:06;10.90;;;9.90;;
579;SDS011;276;48.392;9.950;2023-07-02T09:38:32;10.57;;;9.57;;
579;SDS011;276;48.392;9.950;2023-07-02T09:40:58;9.23;;;8.40;;
579;SDS011;276;48.392;9.950;2023-07-02T09:43:24;10.43;;;9.00;;
579;SDS011;276;48.392;9.950;2023-07-02T09:45:52;10.07;;;8.90;;
579;SDS011;276;48.392;9.950;2023-07-02T09:48:19;9.57;;;8.67;;
579;SDS011;276;48.392;9.950;2023-07-02T09:50:51;9.27;;;7.73;;
579;SDS011;276;48.392;9.950;2023-07-02T09:53:17;10.63;;;9.53;;
579;SDS011;276;48.392;9.950;2023-07-02T09:55:45;10.67;;;9.57;;
579;SDS011;276;48.392;9.950;2023-07-02T09:58:11;10.30;;;9.33;;
579;SDS011;276;48.392;9.950;2023-07-02T10:00:37;10.07;;;9.07;;
579;SDS011;276;48.392;9.950;2023-07-02T10:03:04;9.70;;;8.80;;
579;SDS011;276;48.392;9.950;2023-07-02T10:05:31;9.17;;;8.27;;
579;SDS011;276;48.392;9.950;2023-07-02T10:08:11;9.60;;;8.70;;
579;SDS011;276;48.392;9.950;2023-07-02T10:10:46;9.40;;;8.50;;
579;SDS011;276;48.392;9.950;2023-07-02T10:13:12;10.40;;;9.33;;
579;SDS011;276;48.392;9.950;2023-07-02T10:15:40;11.47;;;10.37;;
579;SDS011;276;48.392;9.950;2023-07-02T10:18:06;10.90;;;9.90;;
579;SDS011;276;48.392;9.950;2023-07-02T10:20:36;10.63;;;9.53;;
579;SDS011;276;48.392;9.950;2023-07-02T10:23:08;11.13;;;10.07;;
579;SDS011;276;48.392;9.950;2023-07-02T10:25:35;11.93;;;10.87;;
579;SDS011;276;48.392;9.950;2023-07-02T10:28:18;14.77;;;12.70;;
579;SDS011;276;48.392;9.950;2023-07-02T10:30:47;13.60;;;11.83;;
579;SDS011;276;48.392;9.950;2023-07-02T10:33:17;14.27;;;12.83;;
579;SDS011;276;48.392;9.950;2023-07-02T10:35:44;15.50;;;12.70;;
579;SDS011;276;48.392;9.950;2023-07-02T10:38:14;13.93;;;12.60;;
579;SDS011;276;48.392;9.950;2023-07-02T10:40:41;14.03;;;12.60;;
579;SDS011;276;48.392;9.950;2023-07-02T10:43:07;13.03;;;11.93;;
579;SDS011;276;48.392;9.950;2023-07-02T10:45:35;13.43;;;12.13;;
579;SDS011;276;48.392;9.950;2023-07-02T10:48:04;13.43;;;12.07;;
579;SDS011;276;48.392;9.950;2023-07-02T10:50:38;14.57;;;13.00;;
579;SDS011;276;48.392;9.950;2023-07-02T10:53:14;15.13;;;13.77;;
579;SDS011;276;48.392;9.950;2023-07-02T10:55:41;13.97;;;12.57;;
579;SDS011;276;48.392;9.950;2023-07-02T10:58:07;14.17;;;12.77;;
579;SDS011;276;48.392;9.950;2023-07-02T11:00:47;15.37;;;13.77;;
579;SDS011;276;48.392;9.950;2023-07-02T11:03:18;14.60;;;13.30;;
579;SDS011;276;48.392;9.950;2023-07-02T11:05:45;14.60;;;13.20;;
579;SDS011;276;48.392;9.950;2023-07-02T11:08:11;13.80;;;12.50;;
579;SDS011;276;48.392;9.950;2023-07-02T11:10:37;16.50;;;15.00;;
579;SDS011;276;48.392;9.950;2023-07-02T11:13:10;16.47;;;14.60;;
579;SDS011;276;48.392;9.950;2023-07-02T11:15:43;17.37;;;15.67;;
579;SDS011;276;48.392;9.950;2023-07-02T11:20:37;16.03;;;14.27;;
579;SDS011;276;48.392;9.950;2023-07-02T11:23:04;16.10;;;14.47;;
579;SDS011;276;48.392;9.950;2023-07-02T11:25:31;18.30;;;16.50;;
579;SDS011;276;48.392;9.950;2023-07-02T11:28:03;16.73;;;15.23;;
579;SDS011;276;48.392;9.950;2023-07-02T11:30:31;18.07;;;16.47;;
579;SDS011;276;48.392;9.950;2023-07-02T11:33:10;18.47;;;16.87;;
579;SDS011;276;48.392;9.950;2023-07-02T11:35:35;17.73;;;15.90;;
579;SDS011;276;48.392;9.950;2023-07-02T11:38:01;17.20;;;15.40;;
579;SDS011;276;48.392;9.950;2023-07-02T11:40:27;17.83;;;16.23;;
579;SDS011;276;48.392;9.950;2023-07-02T11:42:52;18.50;;;16.87;;
579;SDS011;276;48.392;9.950;2023-07-02T11:45:18;18.40;;;16.70;;
579;SDS011;276;48.392;9.950;2023-07-02T11:47:44;18.50;;;16.80;;
579;SDS011;276;48.392;9.950;2023-07-02T11:50:12;17.70;;;15.93;;
579;SDS011;276;48.392;9.950;2023-07-02T11:52:40;17.50;;;15.80;;
579;SDS011;276;48.392;9.950;2023-07-02T11:55:06;17.87;;;16.17;;
579;SDS011;276;48.392;9.950;2023-07-02T11:57:34;18.60;;;16.83;;
579;SDS011;276;48.392;9.950;2023-07-02T12:00:00;18.70;;;17.10;;
579;SDS011;276;48.392;9.950;2023-07-02T12:02:25;20.87;;;18.90;;
579;SDS011;276;48.392;9.950;2023-07-02T12:04:56;20.60;;;18.50;;
579;SDS011;276;48.392;9.950;2023-07-02T12:07:21;20.73;;;18.90;;
579;SDS011;276;48.392;9.950;2023-07-02T12:09:47;18.80;;;17.00;;
579;SDS011;276;48.392;9.950;2023-07-02T12:12:12;20.70;;;18.70;;
579;SDS011;276;48.392;9.950;2023-07-02T12:14:38;19.80;;;17.93;;
579;SDS011;276;48.392;9.950;2023-07-02T12:17:08;21.47;;;19.50;;
579;SDS011;276;48.392;9.950;2023-07-02T12:19:39;18.70;;;17.17;;
579;SDS011;276;48.392;9.950;2023-07-02T12:22:05;18.83;;;17.13;;
579;SDS011;276;48.392;9.950;2023-07-02T12:24:31;20.60;;;18.57;;
579;SDS011;276;48.392;9.950;2023-07-02T12:26:59;20.17;;;18.33;;
579;SDS011;276;48.392;9.950;2023-07-02T12:29:25;20.70;;;18.93;;
579;SDS011;276;48.392;9.950;2023-07-02T12:31:50;19.70;;;17.87;;
579;SDS011;276;48.392;9.950;2023-07-02T12:34:16;18.77;;;16.87;;
579;SDS011;276;48.392;9.950;2023-07-02T12:36:41;20.57;;;18.50;;
579;SDS011;276;48.392;9.950;2023-07-02T12:39:07;20.57;;;18.60;;
579;SDS011;276;48.392;9.950;2023-07-02T12:41:33;21.83;;;19.93;;
579;SDS011;276;48.392;9.950;2023-07-02T12:43:59;21.10;;;19.20;;
579;SDS011;276;48.392;9.950;2023-07-02T12:46:25;22.87;;;20.90;;
579;SDS011;276;48.392;9.950;2023-07-02T12:48:50;21.33;;;19.20;;
579;SDS011;276;48.392;9.950;2023-07-02T12:51:18;23.00;;;20.67;;
579;SDS011;276;48.392;9.950;2023-07-02T12:53:44;21.80;;;19.80;;
579;SDS011;276;48.392;9.950;2023-07-02T12:56:14;23.20;;;21.10;;
579;SDS011;276;48.392;9.950;2023-07-02T12:58:40;25.23;;;22.67;;
579;SDS011;276;48.392;9.950;2023-07-02T13:01:05;25.03;;;22.60;;
579;SDS011;276;48.392;9.950;2023-07-02T13:03:31;23.23;;;20.77;;
579;SDS011;276;48.392;9.950;2023-07-02T13:05:59;22.23;;;20.23;;
579;SDS011;276;48.392;9.950;2023-07-02T13:08:24;24.07;;;21.77;;
579;SDS011;276;48.392;9.950;2023-07-02T13:10:50;23.53;;;21.07;;
579;SDS011;276;48.392;9.950;2023-07-02T13:13:15;22.73;;;20.53;;
579;SDS011;276;48.392;9.950;2023-07-02T13:15:41;26.27;;;23.60;;
579;SDS011;276;48.392;9.950;2023-07-02T13:18:06;25.40;;;22.90;;
579;SDS011;276;48.392;9.950;2023-07-02T13:20:32;27.20;;;24.70;;
579;SDS011;276;48.392;9.950;2023-07-02T13:22:58;25.87;;;23.27;;
579;SDS011;276;48.392;9.950;2023-07-02T13:25:23;27.87;;;25.10;;
579;SDS011;276;48.392;9.950;2023-07-02T13:27:49;25.90;;;23.40;;
579;SDS011;276;48.392;9.950;2023-07-02T13:30:14;26.77;;;24.27;;
579;SDS011;276;48.392;9.950;2023-07-02T13:32:40;24.97;;;22.60;;
579;SDS011;276;48.392;9.950;2023-07-02T13:35:06;27.07;;;24.50;;
579;SDS011;276;48.392;9.950;2023-07-02T13:37:31;30.73;;;27.73;;
579;SDS011;276;48.392;9.950;2023-07-02T13:39:57;29.53;;;26.43;;
579;SDS011;276;48.392;9.950;2023-07-02T13:42:22;30.60;;;27.90;;
579;SDS011;276;48.392;9.950;2023-07-02T13:44:48;31.07;;;28.07;;
579;SDS011;276;48.392;9.950;2023-07-02T13:47:16;28.03;;;25.30;;
579;SDS011;276;48.392;9.950;2023-07-02T13:49:42;29.13;;;25.87;;
579;SDS011;276;48.392;9.950;2023-07-02T13:52:08;28.63;;;25.93;;
579;SDS011;276;48.392;9.950;2023-07-02T13:54:34;29.37;;;26.50;;
579;SDS011;276;48.392;9.950;2023-07-02T13:57:00;29.00;;;26.30;;
579;SDS011;276;48.392;9.950;2023-07-02T13:59:27;28.83;;;26.00;;
579;SDS011;276;48.392;9.950;2023-07-02T14:01:53;28.83;;;26.00;;
579;SDS011;276;48.392;9.950;2023-07-02T14:04:19;28.10;;;25.50;;
579;SDS011;276;48.392;9.950;2023-07-02T14:06:46;28.30;;;25.43;;
579;SDS011;276;48.392;9.950;2023-07-02T14:09:15;26.83;;;24.33;;
579;SDS011;276;48.392;9.950;2023-07-02T14:11:43;28.43;;;25.63;;
579;SDS011;276;48.392;9.950;2023-07-02T14:14:08;24.47;;;22.20;;
579;SDS011;276;48.392;9.950;2023-07-02T14:16:36;25.43;;;23.00;;
579;SDS011;276;48.392;9.950;2023-07-02T14:19:02;25.17;;;22.77;;
579;SDS011;276;48.392;9.950;2023-07-02T14:21:30;26.60;;;24.17;;
579;SDS011;276;48.392;9.950;2023-07-02T14:23:56;23.80;;;21.60;;
579;SDS011;276;48.392;9.950;2023-07-02T14:26:22;24.37;;;22.17;;
579;SDS011;276;48.392;9.950;2023-07-02T14:28:48;23.33;;;21.17;;
579;SDS011;276;48.392;9.950;2023-07-02T14:31:14;22.90;;;20.70;;
579;SDS011;276;48.392;9.950;2023-07-02T14:33:39;23.73;;;21.53;;
579;SDS011;276;48.392;9.950;2023-07-02T14:36:09;21.80;;;19.80;;
579;SDS011;276;48.392;9.950;2023-07-02T14:38:35;24.87;;;22.57;;
579;SDS011;276;48.392;9.950;2023-07-02T14:41:02;22.47;;;20.37;;
579;SDS011;276;48.392;9.950;2023-07-02T14:43:29;21.73;;;19.73;;
579;SDS011;276;48.392;9.950;2023-07-02T14:45:58;24.30;;;21.93;;
579;SDS011;276;48.392;9.950;2023-07-02T14:48:27;22.87;;;20.77;;
579;SDS011;276;48.392;9.950;2023-07-02T14:50:57;24.20;;;21.87;;
579;SDS011;276;48.392;9.950;2023-07-02T14:53:24;24.27;;;21.90;;
579;SDS011;276;48.392;9.950;2023-07-02T14:55:57;24.47;;;22.27;;
579;SDS011;276;48.392;9.950;2023-07-02T14:58:25;25.20;;;22.70;;
579;SDS011;276;48.392;9.950;2023-07-02T15:00:54;24.70;;;22.27;;
579;SDS011;276;48.392;9.950;2023-07-02T15:03:24;23.93;;;21.73;;
579;SDS011;276;48.392;9.950;2023-07-02T15:05:52;25.40;;;22.90;;
579;SDS011;276;48.392;9.950;2023-07-02T15:08:21;24.80;;;22.47;;
579;SDS011;276;48.392;9.950;2023-07-02T15:10:52;27.23;;;24.50;;
579;SDS011;276;48.392;9.950;2023-07-02T15:13:18;24.43;;;22.23;;
579;SDS011;276;48.392;9.950;2023-07-02T15:15:48;24.13;;;21.87;;
579;SDS011;276;48.392;9.950;2023-07-02T15:18:14;24.07;;;21.77;;
579;SDS011;276;48.392;9.950;2023-07-02T15:20:40;23.13;;;21.13;;
579;SDS011;276;48.392;9.950;2023-07-02T15:23:09;25.63;;;23.27;;
579;SDS011;276;48.392;9.950;2023-07-02T15:25:34;24.23;;;21.93;;
579;SDS011;276;48.392;9.950;2023-07-02T15:28:02;23.93;;;20.07;;
579;SDS011;276;48.392;9.950;2023-07-02T15:30:36;23.83;;;21.50;;
579;SDS011;276;48.392;9.950;2023-07-02T15:33:05;23.87;;;21.57;;
579;SDS011;276;48.392;9.950;2023-07-02T15:35:31;22.13;;;19.93;;
579;SDS011;276;48.392;9.950;2023-07-02T15:37:57;24.00;;;21.53;;
579;SDS011;276;48.392;9.950;2023-07-02T15:40:25;27.07;;;24.43;;
579;SDS011;276;48.392;9.950;2023-07-02T15:42:53;26.57;;;23.90;;